sensor_id;sensor_type;location;lat;lon;timestamp;P1;durP1;ratioP1;P2;durP2;ratioP2
43819;SDS011;59678;52.476;6.046;2022-09-09T00:00:11;12.82;;;9.75;;
43819;SDS011;59678;52.476;6.046;2022-09-09T00:02:37;8.00;;;7.28;;
43819;SDS011;59678;52.476;6.046;2022-09-09T00:07:47;10.38;;;9.35;;
43819;SDS011;59678;52.476;6.046;2022-09-09T00:12:50;26.52;;;24.83;;
43819;SDS011;59678;52.476;6.046;2022-09-09T00:15:22;32.28;;;30.48;;
43819;SDS011;59678;52.476;6.046;2022-09-09T00:22:52;72.03;;;68.30;;
43819;SDS011;59678;52.476;6.046;2022-09-09T00:25:22;86.38;;;81.70;;
43819;SDS011;59678;52.476;6.046;2022-09-09T00:27:49;107.53;;;101.95;;
43819;SDS011;59678;52.476;6.046;2022-09-09T00:30:26;117.38;;;111.18;;
43819;SDS011;59678;52.476;6.046;2022-09-09T00:32:58;120.05;;;113.82;;
43819;SDS011;59678;52.476;6.046;2022-09-09T00:35:27;120.63;;;114.10;;
43819;SDS011;59678;52.476;6.046;2022-09-09T00:37:55;129.25;;;121.85;;
43819;SDS011;59678;52.476;6.046;2022-09-09T00:40:32;131.82;;;124.53;;
43819;SDS011;59678;52.476;6.046;2022-09-09T00:43:02;127.60;;;120.72;;
43819;SDS011;59678;52.476;6.046;2022-09-09T00:47:59;121.15;;;114.43;;
43819;SDS011;59678;52.476;6.046;2022-09-09T00:53:13;100.30;;;95.00;;
43819;SDS011;59678;52.476;6.046;2022-09-09T00:58:17;118.93;;;112.47;;
43819;SDS011;59678;52.476;6.046;2022-09-09T01:14:02;103.95;;;98.35;;
43819;SDS011;59678;52.476;6.046;2022-09-09T01:16:32;101.80;;;95.70;;
43819;SDS011;59678;52.476;6.046;2022-09-09T01:18:59;103.10;;;97.47;;
43819;SDS011;59678;52.476;6.046;2022-09-09T01:26:51;94.78;;;89.35;;
43819;SDS011;59678;52.476;6.046;2022-09-09T01:29:24;115.82;;;109.45;;
43819;SDS011;59678;52.476;6.046;2022-09-09T01:34:23;102.65;;;97.05;;
43819;SDS011;59678;52.476;6.046;2022-09-09T01:36:51;112.28;;;106.03;;
43819;SDS011;59678;52.476;6.046;2022-09-09T01:39:18;90.60;;;85.57;;
43819;SDS011;59678;52.476;6.046;2022-09-09T01:41:49;105.70;;;100.05;;
43819;SDS011;59678;52.476;6.046;2022-09-09T01:44:17;93.35;;;88.43;;
43819;SDS011;59678;52.476;6.046;2022-09-09T01:46:44;91.80;;;86.47;;
43819;SDS011;59678;52.476;6.046;2022-09-09T01:49:14;101.38;;;95.75;;
43819;SDS011;59678;52.476;6.046;2022-09-09T01:51:41;91.25;;;85.97;;
43819;SDS011;59678;52.476;6.046;2022-09-09T01:54:10;92.45;;;87.38;;
43819;SDS011;59678;52.476;6.046;2022-09-09T02:06:49;108.00;;;101.70;;
43819;SDS011;59678;52.476;6.046;2022-09-09T02:11:52;105.88;;;99.82;;
43819;SDS011;59678;52.476;6.046;2022-09-09T02:14:30;102.28;;;96.63;;
43819;SDS011;59678;52.476;6.046;2022-09-09T02:17:06;108.40;;;102.22;;
43819;SDS011;59678;52.476;6.046;2022-09-09T02:19:54;102.03;;;96.32;;
43819;SDS011;59678;52.476;6.046;2022-09-09T02:22:34;101.72;;;96.00;;
43819;SDS011;59678;52.476;6.046;2022-09-09T02:25:02;82.43;;;77.72;;
43819;SDS011;59678;52.476;6.046;2022-09-09T02:27:29;97.40;;;92.03;;
43819;SDS011;59678;52.476;6.046;2022-09-09T02:29:55;81.40;;;76.65;;
43819;SDS011;59678;52.476;6.046;2022-09-09T02:32:33;98.07;;;92.65;;
43819;SDS011;59678;52.476;6.046;2022-09-09T02:35:03;92.93;;;87.75;;
43819;SDS011;59678;52.476;6.046;2022-09-09T02:37:38;111.65;;;105.63;;
43819;SDS011;59678;52.476;6.046;2022-09-09T02:40:07;102.20;;;96.63;;
43819;SDS011;59678;52.476;6.046;2022-09-09T02:42:39;86.45;;;81.90;;
43819;SDS011;59678;52.476;6.046;2022-09-09T02:45:06;104.30;;;98.55;;
43819;SDS011;59678;52.476;6.046;2022-09-09T02:47:35;101.22;;;95.78;;
43819;SDS011;59678;52.476;6.046;2022-09-09T02:55:38;100.93;;;95.30;;
43819;SDS011;59678;52.476;6.046;2022-09-09T02:58:08;86.22;;;81.38;;
43819;SDS011;59678;52.476;6.046;2022-09-09T03:00:36;112.03;;;105.80;;
43819;SDS011;59678;52.476;6.046;2022-09-09T03:03:03;102.45;;;96.90;;
43819;SDS011;59678;52.476;6.046;2022-09-09T03:05:30;83.63;;;79.07;;
43819;SDS011;59678;52.476;6.046;2022-09-09T03:07:58;110.10;;;103.70;;
43819;SDS011;59678;52.476;6.046;2022-09-09T03:10:23;114.47;;;108.25;;
43819;SDS011;59678;52.476;6.046;2022-09-09T03:12:49;97.65;;;92.15;;
43819;SDS011;59678;52.476;6.046;2022-09-09T03:15:17;114.13;;;107.75;;
43819;SDS011;59678;52.476;6.046;2022-09-09T03:17:43;127.75;;;120.80;;
43819;SDS011;59678;52.476;6.046;2022-09-09T03:20:09;130.82;;;123.60;;
43819;SDS011;59678;52.476;6.046;2022-09-09T03:22:36;116.18;;;109.90;;
43819;SDS011;59678;52.476;6.046;2022-09-09T03:25:02;141.18;;;133.63;;
43819;SDS011;59678;52.476;6.046;2022-09-09T03:27:28;127.13;;;119.88;;
43819;SDS011;59678;52.476;6.046;2022-09-09T03:29:54;129.23;;;121.90;;
43819;SDS011;59678;52.476;6.046;2022-09-09T03:32:23;129.77;;;122.53;;
43819;SDS011;59678;52.476;6.046;2022-09-09T03:34:52;125.35;;;118.10;;
43819;SDS011;59678;52.476;6.046;2022-09-09T03:37:20;124.72;;;117.45;;
43819;SDS011;59678;52.476;6.046;2022-09-09T03:39:49;114.22;;;107.63;;
43819;SDS011;59678;52.476;6.046;2022-09-09T03:42:16;140.60;;;132.25;;
43819;SDS011;59678;52.476;6.046;2022-09-09T03:44:48;143.73;;;135.70;;
43819;SDS011;59678;52.476;6.046;2022-09-09T03:47:17;119.32;;;112.22;;
43819;SDS011;59678;52.476;6.046;2022-09-09T03:49:44;119.35;;;112.78;;
43819;SDS011;59678;52.476;6.046;2022-09-09T03:52:10;132.82;;;125.40;;
43819;SDS011;59678;52.476;6.046;2022-09-09T03:54:36;131.35;;;124.18;;
43819;SDS011;59678;52.476;6.046;2022-09-09T03:57:04;150.85;;;142.57;;
43819;SDS011;59678;52.476;6.046;2022-09-09T03:59:30;142.02;;;133.73;;
43819;SDS011;59678;52.476;6.046;2022-09-09T04:01:56;152.85;;;144.32;;
43819;SDS011;59678;52.476;6.046;2022-09-09T04:04:22;166.45;;;157.52;;
43819;SDS011;59678;52.476;6.046;2022-09-09T04:06:48;171.27;;;162.20;;
43819;SDS011;59678;52.476;6.046;2022-09-09T04:09:14;170.02;;;160.75;;
43819;SDS011;59678;52.476;6.046;2022-09-09T04:11:41;179.77;;;170.05;;
43819;SDS011;59678;52.476;6.046;2022-09-09T04:14:07;182.15;;;172.43;;
43819;SDS011;59678;52.476;6.046;2022-09-09T04:16:35;153.10;;;144.65;;
43819;SDS011;59678;52.476;6.046;2022-09-09T04:19:05;156.27;;;147.85;;
43819;SDS011;59678;52.476;6.046;2022-09-09T04:21:33;157.80;;;149.25;;
43819;SDS011;59678;52.476;6.046;2022-09-09T04:24:00;145.73;;;137.52;;
43819;SDS011;59678;52.476;6.046;2022-09-09T04:26:25;161.82;;;153.25;;
43819;SDS011;59678;52.476;6.046;2022-09-09T04:28:51;154.10;;;145.77;;
43819;SDS011;59678;52.476;6.046;2022-09-09T04:31:19;183.73;;;174.05;;
43819;SDS011;59678;52.476;6.046;2022-09-09T04:33:49;172.23;;;162.60;;
43819;SDS011;59678;52.476;6.046;2022-09-09T04:36:16;143.57;;;135.70;;
43819;SDS011;59678;52.476;6.046;2022-09-09T04:38:41;162.57;;;153.68;;
43819;SDS011;59678;52.476;6.046;2022-09-09T04:41:10;90.93;;;86.07;;
43819;SDS011;59678;52.476;6.046;2022-09-09T04:43:38;153.27;;;145.27;;
43819;SDS011;59678;52.476;6.046;2022-09-09T04:46:06;128.25;;;121.50;;
43819;SDS011;59678;52.476;6.046;2022-09-09T04:48:32;135.10;;;127.40;;
43819;SDS011;59678;52.476;6.046;2022-09-09T04:51:02;123.10;;;116.47;;
43819;SDS011;59678;52.476;6.046;2022-09-09T04:53:30;156.95;;;148.73;;
43819;SDS011;59678;52.476;6.046;2022-09-09T04:56:01;138.40;;;131.05;;
43819;SDS011;59678;52.476;6.046;2022-09-09T04:58:29;81.10;;;76.90;;
43819;SDS011;59678;52.476;6.046;2022-09-09T05:01:07;110.80;;;104.85;;
43819;SDS011;59678;52.476;6.046;2022-09-09T05:03:33;137.65;;;130.50;;
43819;SDS011;59678;52.476;6.046;2022-09-09T05:06:19;138.55;;;131.18;;
43819;SDS011;59678;52.476;6.046;2022-09-09T05:08:47;142.75;;;135.20;;
43819;SDS011;59678;52.476;6.046;2022-09-09T05:11:40;167.00;;;157.93;;
43819;SDS011;59678;52.476;6.046;2022-09-09T05:14:23;167.80;;;159.00;;
43819;SDS011;59678;52.476;6.046;2022-09-09T05:16:49;139.60;;;132.15;;
43819;SDS011;59678;52.476;6.046;2022-09-09T05:19:15;146.75;;;139.05;;
43819;SDS011;59678;52.476;6.046;2022-09-09T05:21:44;179.25;;;169.63;;
43819;SDS011;59678;52.476;6.046;2022-09-09T05:24:09;185.80;;;176.10;;
43819;SDS011;59678;52.476;6.046;2022-09-09T05:26:36;162.85;;;153.70;;
43819;SDS011;59678;52.476;6.046;2022-09-09T05:29:02;169.77;;;160.43;;
43819;SDS011;59678;52.476;6.046;2022-09-09T05:31:29;205.15;;;194.48;;
43819;SDS011;59678;52.476;6.046;2022-09-09T05:33:55;142.38;;;135.13;;
43819;SDS011;59678;52.476;6.046;2022-09-09T05:36:21;182.55;;;173.05;;
43819;SDS011;59678;52.476;6.046;2022-09-09T05:38:50;148.65;;;140.85;;
43819;SDS011;59678;52.476;6.046;2022-09-09T05:41:16;165.88;;;156.80;;
43819;SDS011;59678;52.476;6.046;2022-09-09T05:43:43;188.60;;;178.65;;
43819;SDS011;59678;52.476;6.046;2022-09-09T05:48:41;188.75;;;178.88;;
43819;SDS011;59678;52.476;6.046;2022-09-09T05:51:11;140.68;;;133.63;;
43819;SDS011;59678;52.476;6.046;2022-09-09T05:53:43;161.85;;;153.23;;
43819;SDS011;59678;52.476;6.046;2022-09-09T05:56:12;153.18;;;144.85;;
43819;SDS011;59678;52.476;6.046;2022-09-09T05:58:39;140.38;;;132.63;;
43819;SDS011;59678;52.476;6.046;2022-09-09T06:01:08;90.57;;;85.60;;
43819;SDS011;59678;52.476;6.046;2022-09-09T06:03:35;39.70;;;37.13;;
43819;SDS011;59678;52.476;6.046;2022-09-09T06:06:02;55.53;;;52.22;;
43819;SDS011;59678;52.476;6.046;2022-09-09T06:08:30;75.10;;;70.45;;
43819;SDS011;59678;52.476;6.046;2022-09-09T06:11:00;80.28;;;75.70;;
43819;SDS011;59678;52.476;6.046;2022-09-09T06:13:28;81.78;;;77.15;;
43819;SDS011;59678;52.476;6.046;2022-09-09T06:15:54;74.97;;;70.60;;
43819;SDS011;59678;52.476;6.046;2022-09-09T06:18:20;77.03;;;72.65;;
43819;SDS011;59678;52.476;6.046;2022-09-09T06:20:53;70.90;;;66.85;;
43819;SDS011;59678;52.476;6.046;2022-09-09T06:23:19;44.28;;;41.58;;
43819;SDS011;59678;52.476;6.046;2022-09-09T06:25:45;36.88;;;34.03;;
43819;SDS011;59678;52.476;6.046;2022-09-09T06:28:11;29.42;;;27.42;;
43819;SDS011;59678;52.476;6.046;2022-09-09T06:30:37;34.42;;;32.30;;
43819;SDS011;59678;52.476;6.046;2022-09-09T06:33:04;34.55;;;32.35;;
43819;SDS011;59678;52.476;6.046;2022-09-09T06:35:30;37.72;;;35.38;;
43819;SDS011;59678;52.476;6.046;2022-09-09T06:37:55;47.10;;;43.92;;
43819;SDS011;59678;52.476;6.046;2022-09-09T06:40:22;55.95;;;52.38;;
43819;SDS011;59678;52.476;6.046;2022-09-09T06:42:47;36.00;;;33.58;;
43819;SDS011;59678;52.476;6.046;2022-09-09T06:45:30;37.83;;;35.67;;
43819;SDS011;59678;52.476;6.046;2022-09-09T06:47:57;46.75;;;43.70;;
43819;SDS011;59678;52.476;6.046;2022-09-09T06:50:23;51.58;;;47.95;;
43819;SDS011;59678;52.476;6.046;2022-09-09T06:52:49;50.45;;;47.35;;
43819;SDS011;59678;52.476;6.046;2022-09-09T06:55:15;39.92;;;37.70;;
43819;SDS011;59678;52.476;6.046;2022-09-09T06:57:41;22.42;;;20.95;;
43819;SDS011;59678;52.476;6.046;2022-09-09T07:00:12;10.63;;;9.73;;
43819;SDS011;59678;52.476;6.046;2022-09-09T07:02:39;11.50;;;10.50;;
43819;SDS011;59678;52.476;6.046;2022-09-09T07:05:08;13.70;;;12.40;;
43819;SDS011;59678;52.476;6.046;2022-09-09T07:07:34;11.68;;;10.80;;
43819;SDS011;59678;52.476;6.046;2022-09-09T07:09:59;9.55;;;8.05;;
43819;SDS011;59678;52.476;6.046;2022-09-09T07:12:25;9.43;;;6.25;;
43819;SDS011;59678;52.476;6.046;2022-09-09T07:14:56;5.07;;;3.92;;
43819;SDS011;59678;52.476;6.046;2022-09-09T07:17:22;5.32;;;3.63;;
43819;SDS011;59678;52.476;6.046;2022-09-09T07:19:47;8.35;;;4.93;;
43819;SDS011;59678;52.476;6.046;2022-09-09T07:22:14;9.32;;;4.07;;
43819;SDS011;59678;52.476;6.046;2022-09-09T07:24:42;7.05;;;4.07;;
43819;SDS011;59678;52.476;6.046;2022-09-09T07:27:11;5.00;;;3.35;;
43819;SDS011;59678;52.476;6.046;2022-09-09T07:29:37;8.07;;;2.33;;
43819;SDS011;59678;52.476;6.046;2022-09-09T07:32:03;7.25;;;3.03;;
43819;SDS011;59678;52.476;6.046;2022-09-09T07:34:32;11.00;;;4.65;;
43819;SDS011;59678;52.476;6.046;2022-09-09T07:36:58;5.93;;;3.65;;
43819;SDS011;59678;52.476;6.046;2022-09-09T07:39:24;7.72;;;3.40;;
43819;SDS011;59678;52.476;6.046;2022-09-09T07:41:52;6.72;;;3.33;;
43819;SDS011;59678;52.476;6.046;2022-09-09T07:44:22;3.65;;;2.35;;
43819;SDS011;59678;52.476;6.046;2022-09-09T07:46:52;5.50;;;3.53;;
43819;SDS011;59678;52.476;6.046;2022-09-09T07:49:23;12.93;;;4.57;;
43819;SDS011;59678;52.476;6.046;2022-09-09T07:51:49;7.40;;;3.80;;
43819;SDS011;59678;52.476;6.046;2022-09-09T07:54:18;8.88;;;3.65;;
43819;SDS011;59678;52.476;6.046;2022-09-09T07:56:50;7.22;;;3.95;;
43819;SDS011;59678;52.476;6.046;2022-09-09T07:59:16;9.55;;;4.40;;
43819;SDS011;59678;52.476;6.046;2022-09-09T08:01:44;10.73;;;4.47;;
43819;SDS011;59678;52.476;6.046;2022-09-09T08:04:12;11.05;;;3.83;;
43819;SDS011;59678;52.476;6.046;2022-09-09T08:06:43;5.70;;;2.90;;
43819;SDS011;59678;52.476;6.046;2022-09-09T08:09:10;6.78;;;3.67;;
43819;SDS011;59678;52.476;6.046;2022-09-09T08:11:37;5.60;;;3.40;;
43819;SDS011;59678;52.476;6.046;2022-09-09T08:14:03;6.63;;;3.83;;
43819;SDS011;59678;52.476;6.046;2022-09-09T08:16:31;4.32;;;1.70;;
43819;SDS011;59678;52.476;6.046;2022-09-09T08:18:57;10.68;;;2.30;;
43819;SDS011;59678;52.476;6.046;2022-09-09T08:21:27;8.20;;;3.70;;
43819;SDS011;59678;52.476;6.046;2022-09-09T08:23:54;5.15;;;3.22;;
43819;SDS011;59678;52.476;6.046;2022-09-09T08:26:21;8.88;;;2.65;;
43819;SDS011;59678;52.476;6.046;2022-09-09T08:28:49;6.13;;;2.25;;
43819;SDS011;59678;52.476;6.046;2022-09-09T08:31:17;5.07;;;2.22;;
43819;SDS011;59678;52.476;6.046;2022-09-09T08:33:44;3.42;;;1.58;;
43819;SDS011;59678;52.476;6.046;2022-09-09T08:36:12;7.45;;;2.00;;
43819;SDS011;59678;52.476;6.046;2022-09-09T08:38:38;5.47;;;2.10;;
43819;SDS011;59678;52.476;6.046;2022-09-09T08:41:08;6.35;;;2.17;;
43819;SDS011;59678;52.476;6.046;2022-09-09T08:43:36;6.35;;;2.00;;
43819;SDS011;59678;52.476;6.046;2022-09-09T08:46:12;2.63;;;1.80;;
43819;SDS011;59678;52.476;6.046;2022-09-09T08:48:56;6.80;;;2.10;;
43819;SDS011;59678;52.476;6.046;2022-09-09T08:51:25;10.35;;;2.40;;
43819;SDS011;59678;52.476;6.046;2022-09-09T08:53:52;5.30;;;2.10;;
43819;SDS011;59678;52.476;6.046;2022-09-09T08:56:22;5.10;;;1.45;;
43819;SDS011;59678;52.476;6.046;2022-09-09T08:58:53;5.43;;;2.17;;
43819;SDS011;59678;52.476;6.046;2022-09-09T09:08:59;8.77;;;1.88;;
43819;SDS011;59678;52.476;6.046;2022-09-09T09:11:33;4.00;;;1.45;;
43819;SDS011;59678;52.476;6.046;2022-09-09T09:14:01;2.92;;;1.40;;
43819;SDS011;59678;52.476;6.046;2022-09-09T09:21:41;5.18;;;2.35;;
43819;SDS011;59678;52.476;6.046;2022-09-09T09:24:19;4.00;;;1.95;;
43819;SDS011;59678;52.476;6.046;2022-09-09T09:26:46;2.42;;;1.77;;
43819;SDS011;59678;52.476;6.046;2022-09-09T09:29:17;3.17;;;1.40;;
43819;SDS011;59678;52.476;6.046;2022-09-09T09:31:45;6.25;;;1.60;;
43819;SDS011;59678;52.476;6.046;2022-09-09T09:34:11;7.50;;;1.88;;
43819;SDS011;59678;52.476;6.046;2022-09-09T09:36:42;8.70;;;3.53;;
43819;SDS011;59678;52.476;6.046;2022-09-09T09:39:31;4.07;;;1.10;;
43819;SDS011;59678;52.476;6.046;2022-09-09T09:42:13;3.35;;;1.40;;
43819;SDS011;59678;52.476;6.046;2022-09-09T09:44:41;5.90;;;2.35;;
43819;SDS011;59678;52.476;6.046;2022-09-09T09:47:22;5.05;;;1.60;;
43819;SDS011;59678;52.476;6.046;2022-09-09T09:49:57;3.20;;;1.55;;
43819;SDS011;59678;52.476;6.046;2022-09-09T09:52:27;4.18;;;1.90;;
43819;SDS011;59678;52.476;6.046;2022-09-09T09:54:54;7.20;;;2.17;;
43819;SDS011;59678;52.476;6.046;2022-09-09T09:57:31;5.30;;;1.52;;
43819;SDS011;59678;52.476;6.046;2022-09-09T10:00:14;3.08;;;1.40;;
43819;SDS011;59678;52.476;6.046;2022-09-09T10:02:42;4.80;;;1.23;;
43819;SDS011;59678;52.476;6.046;2022-09-09T10:05:18;3.55;;;1.33;;
43819;SDS011;59678;52.476;6.046;2022-09-09T10:08:00;6.13;;;1.80;;
43819;SDS011;59678;52.476;6.046;2022-09-09T10:10:29;4.13;;;1.35;;
43819;SDS011;59678;52.476;6.046;2022-09-09T10:25:51;4.10;;;1.50;;
43819;SDS011;59678;52.476;6.046;2022-09-09T10:36:18;6.63;;;1.80;;
43819;SDS011;59678;52.476;6.046;2022-09-09T10:38:48;6.40;;;1.50;;
43819;SDS011;59678;52.476;6.046;2022-09-09T10:44:17;7.47;;;1.73;;
43819;SDS011;59678;52.476;6.046;2022-09-09T10:46:58;6.82;;;1.58;;
43819;SDS011;59678;52.476;6.046;2022-09-09T10:52:21;2.85;;;1.27;;
43819;SDS011;59678;52.476;6.046;2022-09-09T10:54:59;4.78;;;1.45;;
43819;SDS011;59678;52.476;6.046;2022-09-09T10:59:54;5.72;;;1.20;;
43819;SDS011;59678;52.476;6.046;2022-09-09T11:02:32;5.85;;;1.38;;
43819;SDS011;59678;52.476;6.046;2022-09-09T11:10:03;3.40;;;1.30;;
43819;SDS011;59678;52.476;6.046;2022-09-09T11:12:31;3.03;;;1.20;;
43819;SDS011;59678;52.476;6.046;2022-09-09T11:15:06;4.57;;;0.80;;
43819;SDS011;59678;52.476;6.046;2022-09-09T11:17:42;2.42;;;0.93;;
43819;SDS011;59678;52.476;6.046;2022-09-09T11:20:13;3.40;;;1.75;;
43819;SDS011;59678;52.476;6.046;2022-09-09T11:22:43;2.03;;;0.80;;
43819;SDS011;59678;52.476;6.046;2022-09-09T11:27:56;3.45;;;1.02;;
43819;SDS011;59678;52.476;6.046;2022-09-09T11:30:38;4.95;;;1.50;;
43819;SDS011;59678;52.476;6.046;2022-09-09T11:33:51;2.58;;;1.40;;
43819;SDS011;59678;52.476;6.046;2022-09-09T11:38:45;9.17;;;3.23;;
43819;SDS011;59678;52.476;6.046;2022-09-09T11:41:12;4.15;;;2.65;;
43819;SDS011;59678;52.476;6.046;2022-09-09T11:43:39;5.22;;;2.67;;
43819;SDS011;59678;52.476;6.046;2022-09-09T11:46:06;4.70;;;1.73;;
43819;SDS011;59678;52.476;6.046;2022-09-09T11:51:03;3.08;;;1.10;;
43819;SDS011;59678;52.476;6.046;2022-09-09T11:53:30;8.23;;;1.60;;
43819;SDS011;59678;52.476;6.046;2022-09-09T11:56:23;2.35;;;0.80;;
43819;SDS011;59678;52.476;6.046;2022-09-09T11:58:53;6.28;;;1.25;;
43819;SDS011;59678;52.476;6.046;2022-09-09T12:01:30;6.55;;;1.38;;
43819;SDS011;59678;52.476;6.046;2022-09-09T12:06:46;3.38;;;3.03;;
43819;SDS011;59678;52.476;6.046;2022-09-09T12:09:26;6.68;;;4.50;;
43819;SDS011;59678;52.476;6.046;2022-09-09T12:11:53;24.05;;;22.40;;
43819;SDS011;59678;52.476;6.046;2022-09-09T12:17:23;60.95;;;57.65;;
43819;SDS011;59678;52.476;6.046;2022-09-09T12:19:59;39.38;;;36.83;;
43819;SDS011;59678;52.476;6.046;2022-09-09T12:25:23;27.45;;;25.75;;
43819;SDS011;59678;52.476;6.046;2022-09-09T12:30:17;57.63;;;54.10;;
43819;SDS011;59678;52.476;6.046;2022-09-09T12:32:42;109.97;;;104.43;;
43819;SDS011;59678;52.476;6.046;2022-09-09T12:35:16;122.75;;;116.53;;
43819;SDS011;59678;52.476;6.046;2022-09-09T12:37:52;80.85;;;76.55;;
43819;SDS011;59678;52.476;6.046;2022-09-09T12:40:20;32.88;;;30.95;;
43819;SDS011;59678;52.476;6.046;2022-09-09T12:42:46;30.83;;;28.88;;
43819;SDS011;59678;52.476;6.046;2022-09-09T12:45:15;25.85;;;23.77;;
43819;SDS011;59678;52.476;6.046;2022-09-09T12:47:49;17.50;;;16.02;;
43819;SDS011;59678;52.476;6.046;2022-09-09T12:50:20;4.63;;;4.22;;
43819;SDS011;59678;52.476;6.046;2022-09-09T12:52:47;3.83;;;2.05;;
43819;SDS011;59678;52.476;6.046;2022-09-09T12:55:17;8.02;;;2.70;;
43819;SDS011;59678;52.476;6.046;2022-09-09T12:57:44;2.75;;;1.42;;
43819;SDS011;59678;52.476;6.046;2022-09-09T13:00:16;3.10;;;2.25;;
43819;SDS011;59678;52.476;6.046;2022-09-09T13:02:47;3.58;;;1.70;;
43819;SDS011;59678;52.476;6.046;2022-09-09T13:05:14;3.85;;;1.17;;
43819;SDS011;59678;52.476;6.046;2022-09-09T13:07:42;3.58;;;1.20;;
43819;SDS011;59678;52.476;6.046;2022-09-09T13:10:20;3.38;;;1.80;;
43819;SDS011;59678;52.476;6.046;2022-09-09T13:12:47;2.83;;;1.20;;
43819;SDS011;59678;52.476;6.046;2022-09-09T13:15:23;2.75;;;1.20;;
43819;SDS011;59678;52.476;6.046;2022-09-09T13:17:50;1.27;;;0.70;;
43819;SDS011;59678;52.476;6.046;2022-09-09T13:20:18;2.47;;;1.23;;
43819;SDS011;59678;52.476;6.046;2022-09-09T13:22:44;1.63;;;1.00;;
43819;SDS011;59678;52.476;6.046;2022-09-09T13:27:40;3.35;;;1.10;;
43819;SDS011;59678;52.476;6.046;2022-09-09T13:30:22;3.20;;;1.00;;
43819;SDS011;59678;52.476;6.046;2022-09-09T13:35:29;1.45;;;0.80;;
43819;SDS011;59678;52.476;6.046;2022-09-09T13:37:55;3.03;;;0.88;;
43819;SDS011;59678;52.476;6.046;2022-09-09T13:40:21;2.15;;;1.23;;
43819;SDS011;59678;52.476;6.046;2022-09-09T13:42:50;3.08;;;0.77;;
43819;SDS011;59678;52.476;6.046;2022-09-09T13:45:18;0.90;;;0.70;;
43819;SDS011;59678;52.476;6.046;2022-09-09T13:47:45;1.85;;;0.95;;
43819;SDS011;59678;52.476;6.046;2022-09-09T13:50:23;3.08;;;1.02;;
43819;SDS011;59678;52.476;6.046;2022-09-09T13:52:57;1.90;;;0.80;;
43819;SDS011;59678;52.476;6.046;2022-09-09T13:55:26;1.15;;;0.70;;
43819;SDS011;59678;52.476;6.046;2022-09-09T13:57:53;3.10;;;0.65;;
43819;SDS011;59678;52.476;6.046;2022-09-09T14:00:19;1.48;;;0.93;;
43819;SDS011;59678;52.476;6.046;2022-09-09T14:02:46;1.67;;;0.88;;
43819;SDS011;59678;52.476;6.046;2022-09-09T14:05:13;3.35;;;0.90;;
43819;SDS011;59678;52.476;6.046;2022-09-09T14:07:39;1.55;;;0.65;;
43819;SDS011;59678;52.476;6.046;2022-09-09T14:10:06;2.47;;;1.05;;
43819;SDS011;59678;52.476;6.046;2022-09-09T14:12:32;2.60;;;1.20;;
43819;SDS011;59678;52.476;6.046;2022-09-09T14:14:58;2.10;;;0.90;;
43819;SDS011;59678;52.476;6.046;2022-09-09T14:17:25;5.30;;;1.33;;
43819;SDS011;59678;52.476;6.046;2022-09-09T14:19:54;2.38;;;0.95;;
43819;SDS011;59678;52.476;6.046;2022-09-09T14:22:20;3.53;;;0.73;;
43819;SDS011;59678;52.476;6.046;2022-09-09T14:24:45;1.73;;;0.70;;
43819;SDS011;59678;52.476;6.046;2022-09-09T14:27:11;0.75;;;0.75;;
43819;SDS011;59678;52.476;6.046;2022-09-09T14:29:37;2.92;;;0.90;;
43819;SDS011;59678;52.476;6.046;2022-09-09T14:32:02;0.93;;;0.50;;
43819;SDS011;59678;52.476;6.046;2022-09-09T14:34:28;2.10;;;1.02;;
43819;SDS011;59678;52.476;6.046;2022-09-09T14:36:54;7.57;;;1.17;;
43819;SDS011;59678;52.476;6.046;2022-09-09T14:39:19;2.85;;;1.17;;
43819;SDS011;59678;52.476;6.046;2022-09-09T14:41:44;2.35;;;1.27;;
43819;SDS011;59678;52.476;6.046;2022-09-09T14:44:11;3.13;;;1.08;;
43819;SDS011;59678;52.476;6.046;2022-09-09T14:46:36;4.03;;;1.02;;
43819;SDS011;59678;52.476;6.046;2022-09-09T14:49:01;5.28;;;1.40;;
43819;SDS011;59678;52.476;6.046;2022-09-09T14:51:28;4.38;;;1.25;;
43819;SDS011;59678;52.476;6.046;2022-09-09T14:53:55;2.63;;;1.45;;
43819;SDS011;59678;52.476;6.046;2022-09-09T14:56:22;2.95;;;1.00;;
43819;SDS011;59678;52.476;6.046;2022-09-09T15:01:41;4.00;;;1.00;;
43819;SDS011;59678;52.476;6.046;2022-09-09T15:04:07;2.88;;;1.30;;
43819;SDS011;59678;52.476;6.046;2022-09-09T15:06:34;3.80;;;1.50;;
43819;SDS011;59678;52.476;6.046;2022-09-09T15:09:03;4.05;;;1.15;;
43819;SDS011;59678;52.476;6.046;2022-09-09T15:11:30;3.30;;;1.35;;
43819;SDS011;59678;52.476;6.046;2022-09-09T15:13:57;3.78;;;1.40;;
43819;SDS011;59678;52.476;6.046;2022-09-09T15:16:24;4.28;;;1.60;;
43819;SDS011;59678;52.476;6.046;2022-09-09T15:18:51;3.05;;;0.93;;
43819;SDS011;59678;52.476;6.046;2022-09-09T15:21:18;2.33;;;1.10;;
43819;SDS011;59678;52.476;6.046;2022-09-09T15:23:47;2.78;;;1.08;;
43819;SDS011;59678;52.476;6.046;2022-09-09T15:26:13;1.88;;;0.90;;
43819;SDS011;59678;52.476;6.046;2022-09-09T15:28:43;4.43;;;1.40;;
43819;SDS011;59678;52.476;6.046;2022-09-09T15:31:12;2.92;;;1.75;;
43819;SDS011;59678;52.476;6.046;2022-09-09T15:36:21;4.30;;;1.20;;
43819;SDS011;59678;52.476;6.046;2022-09-09T15:38:49;1.85;;;1.13;;
43819;SDS011;59678;52.476;6.046;2022-09-09T15:41:16;3.40;;;1.10;;
43819;SDS011;59678;52.476;6.046;2022-09-09T15:43:43;1.23;;;0.82;;
43819;SDS011;59678;52.476;6.046;2022-09-09T15:46:21;3.95;;;1.38;;
43819;SDS011;59678;52.476;6.046;2022-09-09T15:48:53;2.40;;;0.82;;
43819;SDS011;59678;52.476;6.046;2022-09-09T15:51:20;0.70;;;0.70;;
43819;SDS011;59678;52.476;6.046;2022-09-09T15:53:45;2.08;;;1.10;;
43819;SDS011;59678;52.476;6.046;2022-09-09T15:56:11;5.38;;;1.13;;
43819;SDS011;59678;52.476;6.046;2022-09-09T15:58:37;3.92;;;1.55;;
43819;SDS011;59678;52.476;6.046;2022-09-09T16:03:33;2.72;;;1.15;;
43819;SDS011;59678;52.476;6.046;2022-09-09T16:05:59;3.75;;;1.83;;
43819;SDS011;59678;52.476;6.046;2022-09-09T16:08:30;4.43;;;1.60;;
43819;SDS011;59678;52.476;6.046;2022-09-09T16:10:56;5.00;;;1.50;;
43819;SDS011;59678;52.476;6.046;2022-09-09T16:13:21;4.07;;;1.77;;
43819;SDS011;59678;52.476;6.046;2022-09-09T16:15:53;4.20;;;1.63;;
43819;SDS011;59678;52.476;6.046;2022-09-09T16:18:19;4.68;;;1.70;;
43819;SDS011;59678;52.476;6.046;2022-09-09T16:20:53;5.72;;;2.00;;
43819;SDS011;59678;52.476;6.046;2022-09-09T16:23:19;4.82;;;1.85;;
43819;SDS011;59678;52.476;6.046;2022-09-09T16:25:52;3.00;;;1.52;;
43819;SDS011;59678;52.476;6.046;2022-09-09T16:28:18;5.25;;;1.80;;
43819;SDS011;59678;52.476;6.046;2022-09-09T16:30:43;5.95;;;2.30;;
43819;SDS011;59678;52.476;6.046;2022-09-09T16:33:09;5.47;;;1.73;;
43819;SDS011;59678;52.476;6.046;2022-09-09T16:35:36;3.22;;;2.03;;
43819;SDS011;59678;52.476;6.046;2022-09-09T16:38:02;6.07;;;4.45;;
43819;SDS011;59678;52.476;6.046;2022-09-09T16:40:28;5.43;;;3.72;;
43819;SDS011;59678;52.476;6.046;2022-09-09T16:42:54;10.27;;;9.27;;
43819;SDS011;59678;52.476;6.046;2022-09-09T16:45:20;6.93;;;5.57;;
43819;SDS011;59678;52.476;6.046;2022-09-09T16:47:45;52.20;;;49.20;;
43819;SDS011;59678;52.476;6.046;2022-09-09T16:50:10;33.05;;;31.27;;
43819;SDS011;59678;52.476;6.046;2022-09-09T16:52:36;65.65;;;62.13;;
43819;SDS011;59678;52.476;6.046;2022-09-09T16:55:01;106.65;;;101.25;;
43819;SDS011;59678;52.476;6.046;2022-09-09T16:57:27;152.32;;;144.43;;